createdAt,value
2022-09-14T00:02:22.543Z,21.20
2022-09-14T00:04:54.345Z,21.10
2022-09-14T00:07:26.961Z,20.90
2022-09-14T00:09:58.698Z,20.90
2022-09-14T00:12:31.375Z,20.90
2022-09-14T00:15:04.082Z,21.40
2022-09-14T00:17:36.171Z,20.80
2022-09-14T00:20:08.067Z,20.80
2022-09-14T00:22:40.540Z,20.80
2022-09-14T00:25:12.612Z,20.90
2022-09-14T00:27:44.237Z,21.00
2022-09-14T00:30:16.741Z,21.00
2022-09-14T00:32:48.394Z,21.10
2022-09-14T00:35:20.861Z,21.10
2022-09-14T00:37:52.649Z,21.10
2022-09-14T00:40:25.213Z,21.20
2022-09-14T00:42:56.949Z,21.20
2022-09-14T00:45:29.610Z,21.10
2022-09-14T00:48:01.376Z,20.90
2022-09-14T00:50:33.913Z,20.90
2022-09-14T00:53:05.724Z,20.90
2022-09-14T00:55:38.230Z,20.90
2022-09-14T00:58:09.878Z,20.90
2022-09-14T01:00:43.346Z,20.80
2022-09-14T01:03:15.541Z,21.00
2022-09-14T01:06:00.654Z,20.90
2022-09-14T01:08:51.538Z,20.90
2022-09-14T01:11:33.933Z,20.90
2022-09-14T01:14:19.277Z,20.80
2022-09-14T01:17:09.740Z,20.90
2022-09-14T01:19:49.652Z,21.00
2022-09-14T01:22:25.423Z,20.90
2022-09-14T01:25:03.088Z,20.90
2022-09-14T01:27:41.978Z,20.90
2022-09-14T01:30:22.622Z,21.20
2022-09-14T01:33:00.216Z,20.80
2022-09-14T01:35:35.781Z,20.90
2022-09-14T01:38:11.356Z,21.00
2022-09-14T01:40:46.385Z,21.00
2022-09-14T01:43:19.951Z,21.00
2022-09-14T01:45:54.608Z,20.90
2022-09-14T01:48:58.704Z,20.80
2022-09-14T01:51:38.353Z,20.80
2022-09-14T01:54:12.975Z,20.70
2022-09-14T01:56:50.079Z,20.70
2022-09-14T01:59:26.055Z,20.70
2022-09-14T02:02:18.520Z,20.60
2022-09-14T02:04:54.012Z,20.60
2022-09-14T02:07:26.124Z,20.50
2022-09-14T02:09:59.755Z,20.60
2022-09-14T02:12:31.428Z,20.60
2022-09-14T02:15:04.214Z,20.60
2022-09-14T02:17:35.900Z,20.70
2022-09-14T02:20:11.319Z,20.70
2022-09-14T02:22:45.102Z,20.60
2022-09-14T02:25:18.031Z,20.60
2022-09-14T02:27:50.244Z,20.60
2022-09-14T02:30:22.368Z,20.60
2022-09-14T02:33:09.892Z,20.60
2022-09-14T02:35:47.373Z,20.70
2022-09-14T02:38:19.054Z,20.80
2022-09-14T02:40:58.133Z,21.00
2022-09-14T02:43:43.130Z,21.40
2022-09-14T02:46:18.492Z,21.70
2022-09-14T02:48:59.291Z,22.00
2022-09-14T02:51:33.907Z,22.10
2022-09-14T02:54:12.556Z,22.30
2022-09-14T02:56:45.315Z,22.50
2022-09-14T02:59:17.020Z,22.80
2022-09-14T03:01:49.569Z,23.10
2022-09-14T03:04:21.906Z,23.40
2022-09-14T03:06:54.061Z,23.30
2022-09-14T03:09:26.363Z,24.50
2022-09-14T03:11:58.466Z,23.10
2022-09-14T03:15:16.064Z,22.80
2022-09-14T03:17:51.095Z,22.10
2022-09-14T03:20:27.846Z,21.50
2022-09-14T03:23:00.542Z,21.20
2022-09-14T03:25:35.986Z,20.90
2022-09-14T03:28:08.784Z,20.80
2022-09-14T03:30:40.496Z,20.60
2022-09-14T03:33:13.837Z,20.60
2022-09-14T03:35:45.945Z,20.60
2022-09-14T03:38:19.509Z,20.70
2022-09-14T03:40:51.979Z,20.60
2022-09-14T03:43:24.032Z,20.70
2022-09-14T03:45:56.465Z,20.70
2022-09-14T03:48:30.018Z,20.70
2022-09-14T03:51:02.798Z,20.80
2022-09-14T03:53:34.784Z,20.70
2022-09-14T03:56:11.698Z,20.70
2022-09-14T03:58:44.145Z,20.70
2022-09-14T04:01:17.756Z,20.70
2022-09-14T04:03:50.396Z,20.80
2022-09-14T04:06:22.587Z,20.70
2022-09-14T04:08:55.660Z,20.80
2022-09-14T04:11:28.944Z,20.80
2022-09-14T04:14:01.677Z,20.90
2022-09-14T04:16:33.717Z,21.00
2022-09-14T04:19:06.857Z,20.90
2022-09-14T04:21:38.955Z,21.00
2022-09-14T04:24:15.637Z,21.10
2022-09-14T04:26:48.915Z,21.20
2022-09-14T04:29:20.569Z,21.20
2022-09-14T04:31:52.638Z,21.20
2022-09-14T04:34:24.325Z,21.30
2022-09-14T04:36:56.858Z,21.30
2022-09-14T04:39:28.496Z,21.20
2022-09-14T04:42:00.959Z,21.30
2022-09-14T04:44:32.573Z,21.30
2022-09-14T04:47:05.104Z,21.30
2022-09-14T04:49:37.183Z,21.30
2022-09-14T04:52:52.670Z,21.20
2022-09-14T04:55:26.267Z,21.20
2022-09-14T04:57:58.213Z,22.00
2022-09-14T05:00:30.852Z,21.10
2022-09-14T05:03:03.513Z,21.00
2022-09-14T05:05:36.726Z,21.00
2022-09-14T05:08:08.338Z,21.00
2022-09-14T05:10:40.767Z,21.10
2022-09-14T05:13:15.025Z,21.20
2022-09-14T05:15:46.885Z,21.30
2022-09-14T05:18:19.531Z,21.40
2022-09-14T05:20:51.544Z,20.50
2022-09-14T05:23:25.981Z,21.40
2022-09-14T05:25:59.146Z,21.40
2022-09-14T05:28:31.289Z,23.40
2022-09-14T05:31:10.483Z,21.50
2022-09-14T05:33:42.650Z,21.50
2022-09-14T05:36:14.772Z,21.60
2022-09-14T05:39:06.468Z,21.60
2022-09-14T05:41:49.020Z,21.70
2022-09-14T05:44:22.433Z,21.70
2022-09-14T05:46:57.464Z,21.80
2022-09-14T05:49:56.016Z,21.90
2022-09-14T05:52:29.233Z,23.00
2022-09-14T05:55:02.011Z,21.90
2022-09-14T05:57:34.009Z,22.10
2022-09-14T06:00:07.138Z,22.20
2022-09-14T06:02:58.782Z,22.20
2022-09-14T06:05:31.886Z,22.30
2022-09-14T06:08:05.168Z,22.40
2022-09-14T06:10:37.658Z,22.40
2022-09-14T06:13:09.936Z,22.50
2022-09-14T06:15:41.557Z,22.50
2022-09-14T06:18:13.998Z,22.60
2022-09-14T06:20:52.485Z,22.70
2022-09-14T06:23:24.135Z,22.70
2022-09-14T06:25:57.461Z,22.70
2022-09-14T06:28:29.958Z,22.60
2022-09-14T06:31:04.694Z,22.70
2022-09-14T06:33:37.532Z,22.70
2022-09-14T06:36:12.511Z,22.70
2022-09-14T06:38:45.066Z,22.80
2022-09-14T06:41:18.437Z,22.90
2022-09-14T06:43:51.131Z,23.00
2022-09-14T06:46:24.878Z,23.10
2022-09-14T06:49:02.051Z,23.10
2022-09-14T06:51:35.301Z,23.20
2022-09-14T06:54:08.346Z,23.20
2022-09-14T06:56:40.847Z,23.20
2022-09-14T06:59:14.463Z,23.30
2022-09-14T07:01:46.779Z,23.40
2022-09-14T07:04:19.468Z,23.40
2022-09-14T07:06:52.295Z,23.40
2022-09-14T07:09:23.962Z,23.50
2022-09-14T07:11:56.895Z,23.50
2022-09-14T07:14:32.364Z,23.40
2022-09-14T07:17:05.575Z,23.40
2022-09-14T07:19:37.246Z,23.50
2022-09-14T07:22:10.278Z,23.60
2022-09-14T07:24:42.448Z,23.60
2022-09-14T07:27:14.943Z,23.70
2022-09-14T07:29:47.913Z,23.70
2022-09-14T07:32:19.636Z,23.90
2022-09-14T07:34:52.283Z,24.10
2022-09-14T07:37:23.900Z,24.50
2022-09-14T07:39:57.594Z,24.50
2022-09-14T07:42:29.383Z,24.70
2022-09-14T07:45:01.884Z,24.80
2022-09-14T07:47:33.520Z,24.70
2022-09-14T07:50:06.119Z,24.90
2022-09-14T07:52:39.120Z,25.20
2022-09-14T07:55:12.868Z,25.20
2022-09-14T07:57:56.017Z,25.60
2022-09-14T08:00:29.389Z,25.30
2022-09-14T08:03:01.860Z,25.30
2022-09-14T08:05:34.352Z,25.40
2022-09-14T08:08:07.972Z,25.30
2022-09-14T08:10:40.605Z,24.90
2022-09-14T08:13:13.156Z,25.00
2022-09-14T08:15:45.939Z,25.30
2022-09-14T08:18:18.129Z,25.30
2022-09-14T08:20:49.811Z,25.40
2022-09-14T08:23:22.453Z,25.50
2022-09-14T08:25:54.519Z,25.60
2022-09-14T08:28:27.104Z,25.40
2022-09-14T08:31:03.307Z,25.40
2022-09-14T08:33:37.422Z,25.80
2022-09-14T08:36:10.812Z,26.00
2022-09-14T08:38:42.507Z,26.60
2022-09-14T08:41:32.215Z,27.00
2022-09-14T08:44:10.974Z,26.80
2022-09-14T08:46:44.493Z,26.40
2022-09-14T08:49:17.262Z,27.80
2022-09-14T08:51:50.170Z,29.00
2022-09-14T08:54:23.107Z,28.60
2022-09-14T08:57:04.674Z,27.80
2022-09-14T08:59:42.895Z,27.10
2022-09-14T09:02:25.920Z,26.40
2022-09-14T09:05:14.434Z,26.20
2022-09-14T09:07:53.828Z,26.30
2022-09-14T09:10:25.950Z,26.00
2022-09-14T09:12:59.745Z,25.90
2022-09-14T09:15:37.029Z,25.80
2022-09-14T09:18:12.988Z,26.50
2022-09-14T09:20:47.278Z,27.10
2022-09-14T09:23:20.849Z,27.70
2022-09-14T09:25:52.498Z,27.90
2022-09-14T09:28:25.874Z,27.80
2022-09-14T09:31:08.272Z,27.60
2022-09-14T09:34:02.106Z,27.40
2022-09-14T09:36:36.030Z,27.10
2022-09-14T09:39:07.987Z,27.10
2022-09-14T09:41:44.355Z,27.30
2022-09-14T09:44:16.043Z,27.00
2022-09-14T09:46:53.512Z,27.00
2022-09-14T09:49:25.132Z,27.20
2022-09-14T09:52:06.917Z,27.30
2022-09-14T09:54:40.016Z,27.50
2022-09-14T09:57:23.800Z,27.60
2022-09-14T10:00:10.931Z,27.70
2022-09-14T10:02:44.475Z,28.20
2022-09-14T10:05:21.643Z,28.10
2022-09-14T10:08:08.059Z,27.80
2022-09-14T10:10:44.523Z,27.40
2022-09-14T10:13:27.459Z,26.70
2022-09-14T10:16:07.674Z,26.40
2022-09-14T10:18:50.594Z,25.80
2022-09-14T10:21:23.780Z,25.50
2022-09-14T10:24:07.348Z,25.40
2022-09-14T10:26:39.043Z,25.00
2022-09-14T10:29:23.781Z,22.80
2022-09-14T10:32:00.360Z,21.70
2022-09-14T10:34:32.768Z,21.50
2022-09-14T10:37:09.352Z,21.40
2022-09-14T10:39:59.450Z,21.70
2022-09-14T10:42:55.723Z,21.40
2022-09-14T10:45:34.987Z,21.50
2022-09-14T10:48:27.229Z,21.80
2022-09-14T10:51:18.802Z,21.80
2022-09-14T10:53:51.332Z,21.90
2022-09-14T10:56:41.520Z,22.30
2022-09-14T10:59:32.651Z,22.20
2022-09-14T11:02:05.130Z,22.60
2022-09-14T11:04:52.868Z,22.80
2022-09-14T11:07:43.781Z,22.90
2022-09-14T11:10:21.969Z,22.90
2022-09-14T11:13:06.171Z,22.80
2022-09-14T11:15:41.548Z,22.80
2022-09-14T11:18:32.081Z,22.90
2022-09-14T11:21:09.479Z,22.90
2022-09-14T11:23:46.081Z,22.80
2022-09-14T11:26:20.736Z,23.00
2022-09-14T11:28:55.398Z,22.70
2022-09-14T11:31:41.024Z,22.70
2022-09-14T11:34:17.160Z,22.70
2022-09-14T11:37:05.177Z,22.70
2022-09-14T11:40:04.244Z,22.80
2022-09-14T11:42:40.420Z,23.00
2022-09-14T11:45:33.308Z,22.90
2022-09-14T11:48:40.788Z,22.90
2022-09-14T11:51:05.081Z,22.80
2022-09-14T11:53:37.175Z,22.70
2022-09-14T11:56:19.081Z,22.60
2022-09-14T11:58:52.490Z,22.50
2022-09-14T12:01:26.387Z,22.60
2022-09-14T12:04:01.830Z,22.70
2022-09-14T12:06:36.684Z,22.70
2022-09-14T12:09:21.159Z,22.70
2022-09-14T12:11:59.879Z,22.90
2022-09-14T12:14:35.841Z,23.20
2022-09-14T12:17:38.411Z,23.30
2022-09-14T12:20:41.022Z,23.40
2022-09-14T12:23:12.634Z,23.40
2022-09-14T12:26:04.001Z,23.50
2022-09-14T12:28:35.875Z,23.60
2022-09-14T12:31:10.482Z,23.60
2022-09-14T12:33:43.708Z,23.50
2022-09-14T12:36:22.253Z,23.50
2022-09-14T12:38:54.299Z,23.30
2022-09-14T12:41:46.142Z,23.60
2022-09-14T12:44:32.709Z,22.60
2022-09-14T12:47:23.396Z,22.30
2022-09-14T12:50:04.115Z,22.20
2022-09-14T12:52:43.321Z,22.10
2022-09-14T12:55:16.148Z,22.20
2022-09-14T12:57:59.605Z,22.30
2022-09-14T13:00:39.622Z,22.30
2022-09-14T13:03:11.550Z,22.60
2022-09-14T13:05:44.543Z,22.30
2022-09-14T13:08:20.446Z,22.40
2022-09-14T13:10:52.795Z,22.40
2022-09-14T13:13:26.882Z,22.30
2022-09-14T13:16:00.865Z,22.80
2022-09-14T13:18:34.099Z,22.10
2022-09-14T13:21:24.282Z,22.10
2022-09-14T13:23:56.080Z,22.10
2022-09-14T13:26:30.446Z,21.90
2022-09-14T13:29:02.409Z,21.70
2022-09-14T13:31:37.475Z,21.70
2022-09-14T13:34:15.048Z,21.90
2022-09-14T13:36:46.803Z,21.80
2022-09-14T13:39:21.861Z,21.60
2022-09-14T13:41:54.796Z,21.20
2022-09-14T13:44:42.499Z,20.90
2022-09-14T13:47:15.768Z,20.90
2022-09-14T13:49:49.308Z,20.90
2022-09-14T13:52:31.008Z,21.20
2022-09-14T13:55:20.601Z,21.30
2022-09-14T13:58:06.168Z,21.40
2022-09-14T14:00:54.017Z,21.40
2022-09-14T14:03:29.209Z,21.60
2022-09-14T14:06:03.626Z,21.90
2022-09-14T14:08:38.657Z,22.30
2022-09-14T14:11:10.386Z,22.50
2022-09-14T14:13:42.937Z,22.50
2022-09-14T14:16:17.762Z,22.70
2022-09-14T14:18:54.729Z,23.00
2022-09-14T14:21:28.244Z,23.00
2022-09-14T14:24:21.096Z,23.00
2022-09-14T14:26:54.208Z,22.90
2022-09-14T14:29:26.818Z,23.00
2022-09-14T14:31:59.169Z,22.80
2022-09-14T14:34:31.726Z,22.60
2022-09-14T14:37:04.257Z,22.50
2022-09-14T14:39:36.124Z,22.20
2022-09-14T14:42:10.535Z,23.00
2022-09-14T14:44:43.142Z,22.50
2022-09-14T14:47:15.601Z,22.80
2022-09-14T14:49:48.272Z,22.80
2022-09-14T14:52:19.995Z,23.10
2022-09-14T14:54:52.479Z,23.00
2022-09-14T14:57:24.232Z,23.10
2022-09-14T14:59:57.655Z,23.10
2022-09-14T15:02:31.140Z,23.40
2022-09-14T15:05:03.317Z,23.70
2022-09-14T15:07:37.741Z,23.70
2022-09-14T15:10:13.017Z,23.60
2022-09-14T15:12:46.854Z,23.40
2022-09-14T15:15:19.570Z,23.40
2022-09-14T15:18:01.376Z,23.30
2022-09-14T15:20:33.068Z,23.40
2022-09-14T15:23:06.396Z,23.40
2022-09-14T15:25:38.095Z,23.30
2022-09-14T15:28:10.563Z,23.30
2022-09-14T15:30:42.632Z,22.80
2022-09-14T15:33:14.318Z,22.70
2022-09-14T15:35:46.897Z,22.90
2022-09-14T15:38:18.512Z,23.00
2022-09-14T15:40:51.192Z,23.60
2022-09-14T15:43:22.857Z,22.70
2022-09-14T15:45:55.906Z,22.50
2022-09-14T15:48:28.062Z,22.20
2022-09-14T15:54:40.357Z,22.50
2022-09-14T15:57:13.809Z,23.50
2022-09-14T15:59:45.567Z,22.70
2022-09-14T16:02:20.544Z,22.50
2022-09-14T16:04:52.293Z,22.60
2022-09-14T16:07:24.840Z,22.80
2022-09-14T16:09:59.016Z,22.60
2022-09-14T16:12:31.807Z,23.00
2022-09-14T16:15:04.202Z,24.00
2022-09-14T16:17:35.855Z,22.60
2022-09-14T16:20:10.799Z,22.60
2022-09-14T16:22:42.923Z,22.80
2022-09-14T16:25:15.166Z,22.90
2022-09-14T16:27:47.304Z,22.70
2022-09-14T16:30:18.938Z,22.60
2022-09-14T16:32:51.441Z,22.30
2022-09-14T16:35:23.071Z,22.30
2022-09-14T16:37:55.545Z,22.20
2022-09-14T16:40:28.208Z,21.90
2022-09-14T16:42:59.897Z,22.10
2022-09-14T16:45:32.592Z,22.20
2022-09-14T16:48:04.688Z,22.50
2022-09-14T16:50:36.748Z,21.90
2022-09-14T16:53:08.383Z,21.80
2022-09-14T16:55:40.879Z,21.80
2022-09-14T16:58:12.563Z,21.90
2022-09-14T17:00:45.102Z,22.10
2022-09-14T17:03:16.770Z,21.90
2022-09-14T17:05:49.283Z,22.00
2022-09-14T17:08:20.904Z,22.00
2022-09-14T17:10:55.921Z,22.00
2022-09-14T17:13:28.099Z,22.00
2022-09-14T17:16:02.362Z,21.80
2022-09-14T17:18:35.021Z,21.70
2022-09-14T17:21:09.333Z,21.70
2022-09-14T17:23:41.628Z,21.60
2022-09-14T17:26:15.362Z,22.00
2022-09-14T17:28:49.895Z,21.90
2022-09-14T17:31:24.046Z,22.00
2022-09-14T17:33:58.660Z,22.10
2022-09-14T17:36:31.117Z,21.70
2022-09-14T17:39:11.355Z,23.50
2022-09-14T17:41:44.070Z,19.80
2022-09-14T17:44:16.585Z,21.50
2022-09-14T17:46:52.583Z,21.50
2022-09-14T17:49:25.785Z,22.20
2022-09-14T17:51:57.522Z,21.40
2022-09-14T17:54:30.314Z,21.40
2022-09-14T17:57:03.154Z,21.20
2022-09-14T17:59:35.181Z,21.20
2022-09-14T18:02:07.255Z,21.10
2022-09-14T18:04:39.376Z,21.20
2022-09-14T18:07:11.665Z,21.20
2022-09-14T18:09:43.628Z,21.40
2022-09-14T18:12:17.720Z,21.30
2022-09-14T18:14:50.272Z,21.30
2022-09-14T18:17:21.887Z,21.30
2022-09-14T18:19:58.615Z,21.30
2022-09-14T18:22:30.727Z,21.40
2022-09-14T18:25:03.045Z,21.30
2022-09-14T18:27:35.369Z,21.20
2022-09-14T18:30:07.568Z,21.20
2022-09-14T18:32:40.447Z,21.30
2022-09-14T18:35:14.989Z,21.40
2022-09-14T18:37:48.167Z,21.60
2022-09-14T18:40:20.605Z,21.90
2022-09-14T18:42:53.066Z,22.20
2022-09-14T18:45:25.523Z,22.30
2022-09-14T18:47:57.733Z,22.40
2022-09-14T18:50:29.541Z,22.40
2022-09-14T18:53:01.968Z,22.50
2022-09-14T18:55:33.762Z,22.50
2022-09-14T18:58:06.244Z,22.50
2022-09-14T19:00:44.888Z,22.50
2022-09-14T19:03:17.392Z,22.40
2022-09-14T19:05:49.476Z,22.50
2022-09-14T19:08:21.791Z,22.40
2022-09-14T19:10:53.424Z,22.40
2022-09-14T19:13:25.858Z,22.10
2022-09-14T19:15:57.944Z,21.90
2022-09-14T19:18:30.044Z,21.60
2022-09-14T19:21:09.664Z,21.40
2022-09-14T19:23:43.309Z,21.30
2022-09-14T19:26:16.932Z,21.30
2022-09-14T19:28:48.940Z,21.60
2022-09-14T19:31:23.387Z,21.90
2022-09-14T19:33:55.108Z,22.10
2022-09-14T19:36:28.267Z,22.10
2022-09-14T19:39:02.996Z,22.40
2022-09-14T19:41:35.855Z,22.20
2022-09-14T19:44:07.827Z,22.20
2022-09-14T19:46:40.765Z,22.10
2022-09-14T19:49:17.781Z,22.40
2022-09-14T19:51:49.729Z,22.20
2022-09-14T19:54:22.636Z,22.20
2022-09-14T19:56:54.819Z,22.10
2022-09-14T19:59:27.244Z,22.00
2022-09-14T20:01:59.338Z,22.30
2022-09-14T20:04:31.981Z,22.00
2022-09-14T20:07:03.671Z,22.10
2022-09-14T20:09:36.182Z,23.60
2022-09-14T20:12:08.265Z,22.20
2022-09-14T20:14:39.901Z,22.20
2022-09-14T20:17:12.446Z,22.20
2022-09-14T20:19:44.559Z,21.50
2022-09-14T20:22:17.060Z,22.10
2022-09-14T20:24:48.773Z,24.90
2022-09-14T20:27:21.540Z,23.80
2022-09-14T20:29:53.226Z,22.00
2022-09-14T20:32:25.698Z,24.50
2022-09-14T20:34:57.336Z,22.00
2022-09-14T20:37:29.822Z,22.00
2022-09-14T20:40:01.866Z,23.60
2022-09-14T20:42:34.432Z,22.00
2022-09-14T20:45:06.942Z,23.70
2022-09-14T20:47:38.844Z,22.10
2022-09-14T20:50:11.359Z,22.10
2022-09-14T20:52:43.287Z,22.00
2022-09-14T20:55:15.852Z,22.30
2022-09-14T20:57:47.904Z,22.10
2022-09-14T21:00:20.054Z,22.00
2022-09-14T21:02:52.378Z,23.60
2022-09-14T21:05:25.690Z,21.20
2022-09-14T21:07:57.946Z,24.60
2022-09-14T21:10:29.695Z,22.30
2022-09-14T21:13:02.189Z,23.60
2022-09-14T21:15:33.880Z,22.20
2022-09-14T21:18:06.453Z,22.10
2022-09-14T21:20:39.081Z,23.30
2022-09-14T21:23:10.749Z,22.00
2022-09-14T21:25:43.213Z,22.40
2022-09-14T21:28:15.373Z,22.20
2022-09-14T21:30:48.825Z,22.20
2022-09-14T21:33:21.264Z,22.20
2022-09-14T21:35:53.303Z,22.10
2022-09-14T21:38:24.917Z,22.30
2022-09-14T21:40:57.356Z,22.00
2022-09-14T21:43:29.372Z,22.00
2022-09-14T21:46:01.495Z,23.60
2022-09-14T21:48:33.562Z,21.90
2022-09-14T21:51:07.719Z,21.90
2022-09-14T21:53:39.813Z,20.00
2022-09-14T21:56:12.369Z,21.90
2022-09-14T21:58:44.620Z,21.90
2022-09-14T22:01:17.358Z,21.90
2022-09-14T22:03:51.797Z,21.90
2022-09-14T22:06:25.905Z,22.20
2022-09-14T22:09:00.211Z,22.20
2022-09-14T22:11:33.427Z,21.80
2022-09-14T22:14:11.163Z,21.80
2022-09-14T22:16:42.872Z,21.80
2022-09-14T22:19:23.132Z,22.40
2022-09-14T22:21:55.452Z,21.80
2022-09-14T22:24:32.312Z,21.80
2022-09-14T22:27:10.591Z,21.90
2022-09-14T22:29:42.673Z,21.90
2022-09-14T22:32:14.948Z,21.90
2022-09-14T22:34:49.616Z,21.80
2022-09-14T22:37:22.345Z,21.80
2022-09-14T22:39:54.051Z,21.70
2022-09-14T22:42:28.433Z,21.60
2022-09-14T22:45:00.880Z,21.50
2022-09-14T22:47:33.316Z,23.60
2022-09-14T22:50:05.538Z,21.30
2022-09-14T22:52:37.217Z,21.30
2022-09-14T22:55:09.901Z,21.30
2022-09-14T22:57:41.498Z,21.30
2022-09-14T23:00:14.285Z,21.20
2022-09-14T23:02:45.992Z,21.30
2022-09-14T23:05:20.081Z,21.30
2022-09-14T23:07:51.698Z,21.20
2022-09-14T23:10:24.585Z,21.20
2022-09-14T23:12:56.915Z,21.10
2022-09-14T23:15:28.780Z,21.20
2022-09-14T23:18:01.219Z,22.20
2022-09-14T23:20:37.630Z,21.30
2022-09-14T23:23:10.186Z,20.90
2022-09-14T23:25:42.852Z,21.90
2022-09-14T23:28:14.449Z,20.80
2022-09-14T23:30:53.799Z,20.70
2022-09-14T23:37:09.721Z,20.70
2022-09-14T23:39:45.652Z,20.70
2022-09-14T23:42:26.279Z,20.60
2022-09-14T23:44:58.857Z,19.90
2022-09-14T23:47:31.389Z,20.50
2022-09-14T23:50:03.150Z,20.60
2022-09-14T23:52:35.625Z,20.70
2022-09-14T23:55:07.536Z,20.70
2022-09-14T23:57:39.981Z,20.60
